PWSweather.com
Personal Weather Stations
Station Observations
TARRYHILL
Tarrytown, NY 10591

Tarrytown, NY 10591

Lat: 41.05185, Lon: -73.85296

Elevation: 341

Station Type: Davis Vantage Vue

Latest ConditionsUpdated 3:10:01 AM EDT Monday, Aug 29, 2016
Currently Today's Max Today's Min Today's Average
Temperature 73.4°F23.0°C 73.5°F23.1°C 72.1°F22.3°C 73.1°F22.8°C
Dew Point 65.4°F18.6°C 66.7°F19.3°C 65.4°F18.6°C 66.2°F19.0°C
Winds 3.5 mph SSW5.6 kmh SSW 4.6 mph SW7.4 kmh SW - 2.4 mph 3.9 kmh
Wind Gusts 4.6 mph7.4 kmh 9.2 mph14.8 kmh - -
Humidity 76% 83% 76% 79%
Pressure 30.13 in1020.3 mb 30.17 in1021.7 mb 30.13 in1020.3 mb -
Hour Temp Dew Point Humidity Winds Wind Gusts Pressure Precip Precip Rate Daily Precip Total
03:10 AM 73.4°F23.0°C 65.4°F18.6°C 76% 3.5 mph SSW5.6 kmh SSW 4.6 mph7.4 kmh 30.13 in1020.3 mb - 0.00 in0.0 mm 0.00 in0.0 mm
03:00 AM 73.4°F23.0°C 65.4°F18.6°C 76% 4.6 mph SSW7.4 kmh SSW 6.9 mph11.1 kmh 30.14 in1020.7 mb - 0.00 in0.0 mm 0.00 in0.0 mm
02:50 AM 73.3°F22.9°C 65.7°F18.7°C 77% 4.6 mph SW7.4 kmh SW 6.9 mph11.1 kmh 30.14 in1020.7 mb - 0.00 in0.0 mm 0.00 in0.0 mm
02:40 AM 73.2°F22.9°C 66.0°F18.9°C 78% 3.5 mph S5.6 kmh S 6.9 mph11.1 kmh 30.14 in1020.7 mb - 0.00 in0.0 mm 0.00 in0.0 mm
02:30 AM 73.2°F22.9°C 66.3°F19.1°C 79% 3.5 mph SW5.6 kmh SW 9.2 mph14.8 kmh 30.14 in1020.7 mb - 0.00 in0.0 mm 0.00 in0.0 mm
02:20 AM 73.3°F22.9°C 66.4°F19.1°C 79% 2.3 mph SW3.7 kmh SW 3.5 mph5.6 kmh 30.14 in1020.7 mb - 0.00 in0.0 mm 0.00 in0.0 mm
02:10 AM 73.3°F22.9°C 66.0°F18.9°C 78% 1.2 mph S1.9 kmh S 3.5 mph5.6 kmh 30.14 in1020.7 mb - 0.00 in0.0 mm 0.00 in0.0 mm
02:00 AM 73.5°F23.1°C 66.2°F19.0°C 78% 3.5 mph S5.6 kmh S 4.6 mph7.4 kmh 30.14 in1020.7 mb - 0.00 in0.0 mm 0.00 in0.0 mm
01:50 AM 73.5°F23.1°C 66.2°F19.0°C 78% 2.3 mph SSW3.7 kmh SSW 4.6 mph7.4 kmh 30.14 in1020.7 mb - 0.00 in0.0 mm 0.00 in0.0 mm
01:40 AM 73.3°F22.9°C 66.0°F18.9°C 78% 3.5 mph SSW5.6 kmh SSW 9.2 mph14.8 kmh 30.15 in1021.0 mb - 0.00 in0.0 mm 0.00 in0.0 mm
01:30 AM 73.2°F22.9°C 65.9°F18.8°C 78% 1.2 mph SW1.9 kmh SW 3.5 mph5.6 kmh 30.15 in1021.0 mb - 0.00 in0.0 mm 0.00 in0.0 mm
01:20 AM 73.2°F22.9°C 66.3°F19.1°C 79% 1.2 mph SSW1.9 kmh SSW 3.5 mph5.6 kmh 30.15 in1021.0 mb - 0.00 in0.0 mm 0.00 in0.0 mm
01:10 AM 73.3°F22.9°C 66.4°F19.1°C 79% 2.3 mph S3.7 kmh S 3.5 mph5.6 kmh 30.15 in1021.0 mb - 0.00 in0.0 mm 0.00 in0.0 mm
01:00 AM 73.3°F22.9°C 66.4°F19.1°C 79% 1.2 mph SE1.9 kmh SE 1.2 mph1.9 kmh 30.15 in1021.0 mb - 0.00 in0.0 mm 0.00 in0.0 mm
12:50 AM 73.3°F22.9°C 66.4°F19.1°C 79% 3.5 mph S5.6 kmh S 5.8 mph9.3 kmh 30.16 in1021.3 mb - 0.00 in0.0 mm 0.00 in0.0 mm
12:40 AM 72.9°F22.7°C 66.4°F19.1°C 80% 2.3 mph S3.7 kmh S 3.5 mph5.6 kmh 30.16 in1021.3 mb - 0.00 in0.0 mm 0.00 in0.0 mm
12:30 AM 72.5°F22.5°C 66.4°F19.1°C 81% 3.5 mph SSW5.6 kmh SSW 5.8 mph9.3 kmh 30.16 in1021.3 mb - 0.00 in0.0 mm 0.00 in0.0 mm
12:20 AM 72.1°F22.3°C 66.6°F19.2°C 83% Calm Calm -- 30.17 in1021.7 mb - 0.00 in0.0 mm 0.00 in0.0 mm
12:10 AM 72.2°F22.3°C 66.7°F19.3°C 83% Calm Calm -- 30.17 in1021.7 mb - 0.00 in0.0 mm 0.00 in0.0 mm
12:00 AM 72.3°F22.4°C 66.5°F19.2°C 82% Calm Calm -- 30.17 in1021.7 mb - 0.00 in0.0 mm 0.00 in0.0 mm